Plainville, Massachusetts
Current Conditions -  °F | °C
As of 8:55 PM on Wednesday 26 Nov 2014 (Local Time) from KSFZ Reporting Station
Overcast Overcast  
Wind Chill: 21°   Ceiling: 1400
Heat Index: 34°   Visibility: 3mi
Dew Point: 27°   Wind: 26mph
Humidity: 75%   Direction: 20°NNE
Pressure: 29.66"   Gusts: 35mph
Location:  42°N, 71.33°W
Report Text: KSFZ 270155Z 02023G30KT 3SM SCT006 BKN014 OVC020 01/M03 A2966 RMK AO1 P0009
Loading
Personal Weather Stations






























Interactive Weather Map New forecast layout! Learn more

10-Day Weather Forecast

Advertisements
Track Severe Weather on mobile